sensor_id;sensor_type;location;lat;lon;timestamp;P1;durP1;ratioP1;P2;durP2;ratioP2
55270;SDS011;41132;47.162;9.470;2023-01-29T00:01:04;12.57;;;6.57;;
55270;SDS011;41132;47.162;9.470;2023-01-29T00:06:06;11.75;;;6.38;;
55270;SDS011;41132;47.162;9.470;2023-01-29T00:08:33;10.50;;;6.07;;
55270;SDS011;41132;47.162;9.470;2023-01-29T00:11:00;10.90;;;6.53;;
55270;SDS011;41132;47.162;9.470;2023-01-29T00:13:29;11.93;;;6.72;;
55270;SDS011;41132;47.162;9.470;2023-01-29T00:15:55;10.23;;;6.13;;
55270;SDS011;41132;47.162;9.470;2023-01-29T00:18:22;11.80;;;6.60;;
55270;SDS011;41132;47.162;9.470;2023-01-29T00:20:48;13.00;;;6.30;;
55270;SDS011;41132;47.162;9.470;2023-01-29T00:25:49;10.70;;;5.70;;
55270;SDS011;41132;47.162;9.470;2023-01-29T00:28:14;12.32;;;6.68;;
55270;SDS011;41132;47.162;9.470;2023-01-29T00:30:40;12.10;;;7.07;;
55270;SDS011;41132;47.162;9.470;2023-01-29T00:33:05;12.05;;;6.35;;
55270;SDS011;41132;47.162;9.470;2023-01-29T00:35:31;13.85;;;7.25;;
55270;SDS011;41132;47.162;9.470;2023-01-29T00:37:57;13.40;;;7.28;;
55270;SDS011;41132;47.162;9.470;2023-01-29T00:40:23;15.43;;;7.32;;
55270;SDS011;41132;47.162;9.470;2023-01-29T00:42:49;15.40;;;7.80;;
55270;SDS011;41132;47.162;9.470;2023-01-29T00:45:33;12.10;;;6.88;;
55270;SDS011;41132;47.162;9.470;2023-01-29T00:48:01;14.25;;;7.97;;
55270;SDS011;41132;47.162;9.470;2023-01-29T00:50:27;12.50;;;7.30;;
55270;SDS011;41132;47.162;9.470;2023-01-29T00:52:52;12.05;;;7.20;;
55270;SDS011;41132;47.162;9.470;2023-01-29T00:55:18;11.85;;;7.20;;
55270;SDS011;41132;47.162;9.470;2023-01-29T00:57:44;12.15;;;7.40;;
55270;SDS011;41132;47.162;9.470;2023-01-29T01:00:11;18.20;;;7.72;;
55270;SDS011;41132;47.162;9.470;2023-01-29T01:02:38;13.23;;;7.10;;
55270;SDS011;41132;47.162;9.470;2023-01-29T01:05:22;13.63;;;7.88;;
55270;SDS011;41132;47.162;9.470;2023-01-29T01:07:51;14.95;;;8.15;;
55270;SDS011;41132;47.162;9.470;2023-01-29T01:10:25;15.10;;;7.50;;
55270;SDS011;41132;47.162;9.470;2023-01-29T01:13:05;12.57;;;6.85;;
55270;SDS011;41132;47.162;9.470;2023-01-29T01:15:35;12.32;;;7.20;;
55270;SDS011;41132;47.162;9.470;2023-01-29T01:18:03;15.98;;;7.63;;
55270;SDS011;41132;47.162;9.470;2023-01-29T01:20:29;14.55;;;7.80;;
55270;SDS011;41132;47.162;9.470;2023-01-29T01:22:57;13.75;;;7.18;;
55270;SDS011;41132;47.162;9.470;2023-01-29T01:25:23;12.95;;;7.18;;
55270;SDS011;41132;47.162;9.470;2023-01-29T01:27:52;13.55;;;7.45;;
55270;SDS011;41132;47.162;9.470;2023-01-29T01:30:22;13.93;;;7.40;;
55270;SDS011;41132;47.162;9.470;2023-01-29T01:32:49;12.70;;;7.15;;
55270;SDS011;41132;47.162;9.470;2023-01-29T01:35:15;13.75;;;7.70;;
55270;SDS011;41132;47.162;9.470;2023-01-29T01:37:40;13.55;;;7.40;;
55270;SDS011;41132;47.162;9.470;2023-01-29T01:40:08;12.32;;;7.20;;
55270;SDS011;41132;47.162;9.470;2023-01-29T01:42:42;12.77;;;6.95;;
55270;SDS011;41132;47.162;9.470;2023-01-29T01:45:16;13.23;;;6.55;;
55270;SDS011;41132;47.162;9.470;2023-01-29T01:47:58;15.63;;;7.47;;
55270;SDS011;41132;47.162;9.470;2023-01-29T01:50:33;14.60;;;7.10;;
55270;SDS011;41132;47.162;9.470;2023-01-29T01:53:04;13.52;;;6.88;;
55270;SDS011;41132;47.162;9.470;2023-01-29T01:55:32;13.25;;;6.90;;
55270;SDS011;41132;47.162;9.470;2023-01-29T01:58:11;12.90;;;7.40;;
55270;SDS011;41132;47.162;9.470;2023-01-29T02:00:39;13.70;;;6.85;;
55270;SDS011;41132;47.162;9.470;2023-01-29T02:03:05;12.77;;;6.57;;
55270;SDS011;41132;47.162;9.470;2023-01-29T02:05:52;11.18;;;5.65;;
55270;SDS011;41132;47.162;9.470;2023-01-29T02:08:42;14.18;;;7.95;;
55270;SDS011;41132;47.162;9.470;2023-01-29T02:13:58;12.27;;;6.47;;
55270;SDS011;41132;47.162;9.470;2023-01-29T02:16:24;14.35;;;7.57;;
55270;SDS011;41132;47.162;9.470;2023-01-29T02:18:49;11.95;;;6.60;;
55270;SDS011;41132;47.162;9.470;2023-01-29T02:24:04;12.57;;;6.45;;
55270;SDS011;41132;47.162;9.470;2023-01-29T02:27:11;11.95;;;6.25;;
55270;SDS011;41132;47.162;9.470;2023-01-29T02:32:29;14.00;;;7.10;;
55270;SDS011;41132;47.162;9.470;2023-01-29T02:35:05;12.25;;;6.82;;
55270;SDS011;41132;47.162;9.470;2023-01-29T02:38:01;17.45;;;7.72;;
55270;SDS011;41132;47.162;9.470;2023-01-29T02:43:38;14.43;;;8.07;;
55270;SDS011;41132;47.162;9.470;2023-01-29T02:48:44;13.67;;;8.27;;
55270;SDS011;41132;47.162;9.470;2023-01-29T02:51:33;14.90;;;7.85;;
55270;SDS011;41132;47.162;9.470;2023-01-29T02:54:38;13.93;;;7.53;;
55270;SDS011;41132;47.162;9.470;2023-01-29T02:57:16;14.10;;;7.70;;
55270;SDS011;41132;47.162;9.470;2023-01-29T02:59:48;12.60;;;7.38;;
55270;SDS011;41132;47.162;9.470;2023-01-29T03:02:19;14.65;;;7.28;;
55270;SDS011;41132;47.162;9.470;2023-01-29T03:04:59;13.43;;;7.43;;
55270;SDS011;41132;47.162;9.470;2023-01-29T03:07:27;12.38;;;6.95;;
55270;SDS011;41132;47.162;9.470;2023-01-29T03:12:46;13.95;;;7.95;;
55270;SDS011;41132;47.162;9.470;2023-01-29T03:15:21;13.05;;;7.68;;
55270;SDS011;41132;47.162;9.470;2023-01-29T03:20:53;11.88;;;7.68;;
55270;SDS011;41132;47.162;9.470;2023-01-29T03:23:29;13.68;;;7.57;;
55270;SDS011;41132;47.162;9.470;2023-01-29T03:26:19;14.98;;;7.53;;
55270;SDS011;41132;47.162;9.470;2023-01-29T03:29:05;16.02;;;8.20;;
55270;SDS011;41132;47.162;9.470;2023-01-29T03:31:52;11.15;;;6.82;;
55270;SDS011;41132;47.162;9.470;2023-01-29T03:34:29;11.32;;;6.32;;
55270;SDS011;41132;47.162;9.470;2023-01-29T03:37:28;14.52;;;7.07;;
55270;SDS011;41132;47.162;9.470;2023-01-29T03:39:54;10.10;;;6.32;;
55270;SDS011;41132;47.162;9.470;2023-01-29T03:42:23;15.15;;;7.55;;
55270;SDS011;41132;47.162;9.470;2023-01-29T03:53:24;11.85;;;6.82;;
55270;SDS011;41132;47.162;9.470;2023-01-29T03:58:23;13.07;;;7.20;;
55270;SDS011;41132;47.162;9.470;2023-01-29T04:01:18;12.43;;;6.13;;
55270;SDS011;41132;47.162;9.470;2023-01-29T04:06:21;13.30;;;6.38;;
55270;SDS011;41132;47.162;9.470;2023-01-29T04:08:54;14.52;;;7.32;;
55270;SDS011;41132;47.162;9.470;2023-01-29T04:11:26;13.20;;;7.00;;
55270;SDS011;41132;47.162;9.470;2023-01-29T04:13:53;11.13;;;6.10;;
55270;SDS011;41132;47.162;9.470;2023-01-29T04:26:47;12.23;;;6.57;;
55270;SDS011;41132;47.162;9.470;2023-01-29T04:37:39;11.63;;;6.18;;
55270;SDS011;41132;47.162;9.470;2023-01-29T04:40:19;12.25;;;7.53;;
55270;SDS011;41132;47.162;9.470;2023-01-29T04:43:08;13.55;;;7.32;;
55270;SDS011;41132;47.162;9.470;2023-01-29T04:51:56;13.70;;;7.53;;
55270;SDS011;41132;47.162;9.470;2023-01-29T04:54:29;14.85;;;6.95;;
55270;SDS011;41132;47.162;9.470;2023-01-29T04:59:48;12.43;;;7.05;;
55270;SDS011;41132;47.162;9.470;2023-01-29T05:02:19;11.90;;;7.13;;
55270;SDS011;41132;47.162;9.470;2023-01-29T05:04:48;12.43;;;7.18;;
55270;SDS011;41132;47.162;9.470;2023-01-29T05:07:14;13.20;;;7.32;;
55270;SDS011;41132;47.162;9.470;2023-01-29T05:09:41;13.02;;;7.30;;
55270;SDS011;41132;47.162;9.470;2023-01-29T05:12:09;12.27;;;7.63;;
55270;SDS011;41132;47.162;9.470;2023-01-29T05:14:37;14.20;;;7.30;;
55270;SDS011;41132;47.162;9.470;2023-01-29T05:17:07;13.18;;;7.35;;
55270;SDS011;41132;47.162;9.470;2023-01-29T05:19:38;13.57;;;7.22;;
55270;SDS011;41132;47.162;9.470;2023-01-29T05:22:04;12.25;;;7.30;;
55270;SDS011;41132;47.162;9.470;2023-01-29T05:24:31;11.93;;;6.95;;
55270;SDS011;41132;47.162;9.470;2023-01-29T05:26:56;13.05;;;8.02;;
55270;SDS011;41132;47.162;9.470;2023-01-29T05:29:45;12.52;;;7.70;;
55270;SDS011;41132;47.162;9.470;2023-01-29T05:32:11;10.77;;;6.47;;
55270;SDS011;41132;47.162;9.470;2023-01-29T05:34:37;10.93;;;6.10;;
55270;SDS011;41132;47.162;9.470;2023-01-29T05:37:02;12.80;;;7.00;;
55270;SDS011;41132;47.162;9.470;2023-01-29T05:39:27;16.55;;;8.98;;
55270;SDS011;41132;47.162;9.470;2023-01-29T05:41:53;12.32;;;6.95;;
55270;SDS011;41132;47.162;9.470;2023-01-29T05:44:18;11.70;;;6.65;;
55270;SDS011;41132;47.162;9.470;2023-01-29T05:46:44;10.88;;;6.28;;
55270;SDS011;41132;47.162;9.470;2023-01-29T05:49:10;11.50;;;6.25;;
55270;SDS011;41132;47.162;9.470;2023-01-29T05:51:36;12.30;;;6.65;;
55270;SDS011;41132;47.162;9.470;2023-01-29T05:54:01;11.18;;;6.50;;
55270;SDS011;41132;47.162;9.470;2023-01-29T05:56:27;13.27;;;7.28;;
55270;SDS011;41132;47.162;9.470;2023-01-29T05:58:52;11.85;;;6.40;;
55270;SDS011;41132;47.162;9.470;2023-01-29T06:01:20;10.88;;;6.65;;
55270;SDS011;41132;47.162;9.470;2023-01-29T06:03:47;12.13;;;7.35;;
55270;SDS011;41132;47.162;9.470;2023-01-29T06:06:13;15.65;;;9.50;;
55270;SDS011;41132;47.162;9.470;2023-01-29T06:08:39;12.23;;;7.57;;
55270;SDS011;41132;47.162;9.470;2023-01-29T06:11:09;14.05;;;7.40;;
55270;SDS011;41132;47.162;9.470;2023-01-29T06:13:36;11.30;;;6.93;;
55270;SDS011;41132;47.162;9.470;2023-01-29T06:16:07;15.10;;;8.57;;
55270;SDS011;41132;47.162;9.470;2023-01-29T06:18:37;13.25;;;7.32;;
55270;SDS011;41132;47.162;9.470;2023-01-29T06:21:04;16.38;;;8.10;;
55270;SDS011;41132;47.162;9.470;2023-01-29T06:23:31;15.50;;;8.07;;
55270;SDS011;41132;47.162;9.470;2023-01-29T06:26:01;11.30;;;6.90;;
55270;SDS011;41132;47.162;9.470;2023-01-29T06:28:30;14.38;;;7.55;;
55270;SDS011;41132;47.162;9.470;2023-01-29T06:31:03;12.00;;;6.85;;
55270;SDS011;41132;47.162;9.470;2023-01-29T06:33:29;12.38;;;6.88;;
55270;SDS011;41132;47.162;9.470;2023-01-29T06:35:58;17.10;;;9.10;;
55270;SDS011;41132;47.162;9.470;2023-01-29T06:38:25;13.98;;;8.07;;
55270;SDS011;41132;47.162;9.470;2023-01-29T06:40:52;12.85;;;7.75;;
55270;SDS011;41132;47.162;9.470;2023-01-29T06:43:17;13.27;;;7.70;;
55270;SDS011;41132;47.162;9.470;2023-01-29T06:45:50;12.38;;;7.10;;
55270;SDS011;41132;47.162;9.470;2023-01-29T06:48:19;13.98;;;8.10;;
55270;SDS011;41132;47.162;9.470;2023-01-29T06:50:45;15.00;;;7.05;;
55270;SDS011;41132;47.162;9.470;2023-01-29T06:53:11;18.70;;;7.40;;
55270;SDS011;41132;47.162;9.470;2023-01-29T06:55:37;15.15;;;7.57;;
55270;SDS011;41132;47.162;9.470;2023-01-29T06:58:06;14.95;;;8.23;;
55270;SDS011;41132;47.162;9.470;2023-01-29T07:00:33;14.55;;;7.25;;
55270;SDS011;41132;47.162;9.470;2023-01-29T07:03:00;14.48;;;7.43;;
55270;SDS011;41132;47.162;9.470;2023-01-29T07:05:25;13.43;;;7.28;;
55270;SDS011;41132;47.162;9.470;2023-01-29T07:07:51;15.38;;;8.27;;
55270;SDS011;41132;47.162;9.470;2023-01-29T07:10:16;13.10;;;7.55;;
55270;SDS011;41132;47.162;9.470;2023-01-29T07:12:42;13.88;;;7.85;;
55270;SDS011;41132;47.162;9.470;2023-01-29T07:15:07;14.13;;;8.02;;
55270;SDS011;41132;47.162;9.470;2023-01-29T07:17:33;15.80;;;8.38;;
55270;SDS011;41132;47.162;9.470;2023-01-29T07:19:58;14.50;;;7.57;;
55270;SDS011;41132;47.162;9.470;2023-01-29T07:22:24;13.00;;;7.78;;
55270;SDS011;41132;47.162;9.470;2023-01-29T07:24:49;13.70;;;7.95;;
55270;SDS011;41132;47.162;9.470;2023-01-29T07:27:14;13.85;;;7.00;;
55270;SDS011;41132;47.162;9.470;2023-01-29T07:29:40;12.60;;;6.85;;
55270;SDS011;41132;47.162;9.470;2023-01-29T07:32:05;11.88;;;7.05;;
55270;SDS011;41132;47.162;9.470;2023-01-29T07:34:31;11.32;;;6.25;;
55270;SDS011;41132;47.162;9.470;2023-01-29T07:44:43;13.27;;;8.57;;
55270;SDS011;41132;47.162;9.470;2023-01-29T08:23:20;14.10;;;7.50;;
55270;SDS011;41132;47.162;9.470;2023-01-29T08:25:47;13.18;;;7.57;;
55270;SDS011;41132;47.162;9.470;2023-01-29T08:30:48;13.10;;;7.32;;
55270;SDS011;41132;47.162;9.470;2023-01-29T09:24:57;8.55;;;3.95;;
55270;SDS011;41132;47.162;9.470;2023-01-29T09:27:22;8.80;;;4.47;;
55270;SDS011;41132;47.162;9.470;2023-01-29T11:07:32;9.60;;;4.95;;
55270;SDS011;41132;47.162;9.470;2023-01-29T11:15:17;9.02;;;5.55;;
55270;SDS011;41132;47.162;9.470;2023-01-29T11:18:30;9.80;;;5.00;;
55270;SDS011;41132;47.162;9.470;2023-01-29T11:23:23;9.55;;;5.22;;
55270;SDS011;41132;47.162;9.470;2023-01-29T11:25:52;8.25;;;4.80;;
55270;SDS011;41132;47.162;9.470;2023-01-29T11:28:34;10.45;;;5.45;;
55270;SDS011;41132;47.162;9.470;2023-01-29T11:33:28;10.70;;;5.55;;
55270;SDS011;41132;47.162;9.470;2023-01-29T11:35:54;8.77;;;5.07;;
55270;SDS011;41132;47.162;9.470;2023-01-29T11:38:22;9.80;;;5.63;;
55270;SDS011;41132;47.162;9.470;2023-01-29T11:40:49;10.25;;;6.18;;
55270;SDS011;41132;47.162;9.470;2023-01-29T11:45:51;8.82;;;5.35;;
55270;SDS011;41132;47.162;9.470;2023-01-29T11:48:19;10.20;;;5.57;;
55270;SDS011;41132;47.162;9.470;2023-01-29T11:50:50;8.70;;;5.75;;
55270;SDS011;41132;47.162;9.470;2023-01-29T11:55:58;9.75;;;4.85;;
55270;SDS011;41132;47.162;9.470;2023-01-29T11:58:26;9.25;;;5.10;;
55270;SDS011;41132;47.162;9.470;2023-01-29T12:00:55;9.15;;;5.43;;
55270;SDS011;41132;47.162;9.470;2023-01-29T12:03:29;8.10;;;4.57;;
55270;SDS011;41132;47.162;9.470;2023-01-29T12:11:12;8.98;;;5.13;;
55270;SDS011;41132;47.162;9.470;2023-01-29T12:24:11;8.63;;;4.82;;
55270;SDS011;41132;47.162;9.470;2023-01-29T12:27:18;10.32;;;5.10;;
55270;SDS011;41132;47.162;9.470;2023-01-29T12:35:49;8.38;;;5.10;;
55270;SDS011;41132;47.162;9.470;2023-01-29T12:38:20;10.07;;;5.28;;
55270;SDS011;41132;47.162;9.470;2023-01-29T12:45:59;8.40;;;4.93;;
55270;SDS011;41132;47.162;9.470;2023-01-29T12:48:27;9.48;;;5.15;;
55270;SDS011;41132;47.162;9.470;2023-01-29T12:50:58;8.02;;;4.95;;
55270;SDS011;41132;47.162;9.470;2023-01-29T12:53:37;9.05;;;5.45;;
55270;SDS011;41132;47.162;9.470;2023-01-29T12:56:09;8.43;;;4.63;;
55270;SDS011;41132;47.162;9.470;2023-01-29T13:01:15;9.48;;;4.78;;
55270;SDS011;41132;47.162;9.470;2023-01-29T13:09:00;9.88;;;5.25;;
55270;SDS011;41132;47.162;9.470;2023-01-29T13:14:07;7.95;;;4.95;;
55270;SDS011;41132;47.162;9.470;2023-01-29T13:16:43;9.40;;;5.28;;
55270;SDS011;41132;47.162;9.470;2023-01-29T13:19:31;8.85;;;5.40;;
55270;SDS011;41132;47.162;9.470;2023-01-29T13:22:02;9.80;;;5.30;;
55270;SDS011;41132;47.162;9.470;2023-01-29T13:24:38;9.52;;;5.30;;
55270;SDS011;41132;47.162;9.470;2023-01-29T13:27:05;9.68;;;4.93;;
55270;SDS011;41132;47.162;9.470;2023-01-29T13:29:31;9.02;;;5.20;;
55270;SDS011;41132;47.162;9.470;2023-01-29T13:32:01;9.73;;;5.30;;
55270;SDS011;41132;47.162;9.470;2023-01-29T13:34:33;10.23;;;5.18;;
55270;SDS011;41132;47.162;9.470;2023-01-29T13:39:37;10.13;;;4.95;;
55270;SDS011;41132;47.162;9.470;2023-01-29T13:42:20;8.77;;;4.95;;
55270;SDS011;41132;47.162;9.470;2023-01-29T13:44:48;13.98;;;5.50;;
55270;SDS011;41132;47.162;9.470;2023-01-29T13:50:07;9.98;;;5.18;;
55270;SDS011;41132;47.162;9.470;2023-01-29T13:52:53;10.05;;;5.18;;
55270;SDS011;41132;47.162;9.470;2023-01-29T13:57:57;12.63;;;5.53;;
55270;SDS011;41132;47.162;9.470;2023-01-29T14:17:27;12.38;;;6.72;;
55270;SDS011;41132;47.162;9.470;2023-01-29T14:20:14;9.70;;;5.95;;
55270;SDS011;41132;47.162;9.470;2023-01-29T14:22:43;9.93;;;5.85;;
55270;SDS011;41132;47.162;9.470;2023-01-29T14:25:14;10.32;;;6.10;;
55270;SDS011;41132;47.162;9.470;2023-01-29T14:27:46;9.32;;;5.25;;
55270;SDS011;41132;47.162;9.470;2023-01-29T14:30:15;10.93;;;6.00;;
55270;SDS011;41132;47.162;9.470;2023-01-29T14:32:45;9.88;;;5.38;;
55270;SDS011;41132;47.162;9.470;2023-01-29T14:35:19;10.23;;;6.40;;
55270;SDS011;41132;47.162;9.470;2023-01-29T14:37:48;10.80;;;6.45;;
55270;SDS011;41132;47.162;9.470;2023-01-29T14:45:33;11.50;;;6.47;;
55270;SDS011;41132;47.162;9.470;2023-01-29T14:48:01;10.27;;;6.45;;
55270;SDS011;41132;47.162;9.470;2023-01-29T14:52:52;10.43;;;6.53;;
55270;SDS011;41132;47.162;9.470;2023-01-29T14:55:26;9.77;;;5.88;;
55270;SDS011;41132;47.162;9.470;2023-01-29T14:57:56;11.65;;;5.32;;
55270;SDS011;41132;47.162;9.470;2023-01-29T15:00:26;11.45;;;6.70;;
55270;SDS011;41132;47.162;9.470;2023-01-29T15:02:54;12.13;;;7.28;;
55270;SDS011;41132;47.162;9.470;2023-01-29T15:05:31;11.68;;;6.80;;
55270;SDS011;41132;47.162;9.470;2023-01-29T15:19:11;10.40;;;5.80;;
55270;SDS011;41132;47.162;9.470;2023-01-29T15:22:00;9.90;;;5.88;;
55270;SDS011;41132;47.162;9.470;2023-01-29T15:24:26;11.38;;;5.90;;
55270;SDS011;41132;47.162;9.470;2023-01-29T15:26:51;10.40;;;6.68;;
55270;SDS011;41132;47.162;9.470;2023-01-29T15:29:22;10.35;;;6.22;;
55270;SDS011;41132;47.162;9.470;2023-01-29T15:31:50;12.10;;;6.03;;
55270;SDS011;41132;47.162;9.470;2023-01-29T15:34:15;10.02;;;5.57;;
55270;SDS011;41132;47.162;9.470;2023-01-29T15:36:46;9.00;;;6.28;;
55270;SDS011;41132;47.162;9.470;2023-01-29T15:39:19;11.13;;;6.35;;
55270;SDS011;41132;47.162;9.470;2023-01-29T15:41:47;9.20;;;6.10;;
55270;SDS011;41132;47.162;9.470;2023-01-29T15:44:19;12.27;;;7.03;;
55270;SDS011;41132;47.162;9.470;2023-01-29T15:46:50;10.60;;;6.20;;
55270;SDS011;41132;47.162;9.470;2023-01-29T15:49:18;9.48;;;5.43;;
55270;SDS011;41132;47.162;9.470;2023-01-29T15:51:56;9.38;;;5.30;;
55270;SDS011;41132;47.162;9.470;2023-01-29T15:54:23;10.75;;;6.00;;
55270;SDS011;41132;47.162;9.470;2023-01-29T15:56:51;10.50;;;5.55;;
55270;SDS011;41132;47.162;9.470;2023-01-29T15:59:24;9.65;;;4.68;;
55270;SDS011;41132;47.162;9.470;2023-01-29T16:01:51;9.90;;;5.88;;
55270;SDS011;41132;47.162;9.470;2023-01-29T16:04:24;10.27;;;6.32;;
55270;SDS011;41132;47.162;9.470;2023-01-29T16:06:53;12.98;;;6.82;;
55270;SDS011;41132;47.162;9.470;2023-01-29T16:09:24;11.02;;;6.20;;
55270;SDS011;41132;47.162;9.470;2023-01-29T16:11:52;10.82;;;6.20;;
55270;SDS011;41132;47.162;9.470;2023-01-29T16:14:22;11.30;;;6.68;;
55270;SDS011;41132;47.162;9.470;2023-01-29T16:16:49;14.80;;;6.78;;
55270;SDS011;41132;47.162;9.470;2023-01-29T16:19:23;14.52;;;6.88;;
55270;SDS011;41132;47.162;9.470;2023-01-29T16:21:52;12.48;;;6.20;;
55270;SDS011;41132;47.162;9.470;2023-01-29T16:24:21;12.25;;;6.90;;
55270;SDS011;41132;47.162;9.470;2023-01-29T16:26:49;10.80;;;5.82;;
55270;SDS011;41132;47.162;9.470;2023-01-29T16:29:18;12.38;;;6.50;;
55270;SDS011;41132;47.162;9.470;2023-01-29T16:31:46;11.52;;;6.38;;
55270;SDS011;41132;47.162;9.470;2023-01-29T16:36:45;10.18;;;6.28;;
55270;SDS011;41132;47.162;9.470;2023-01-29T16:39:19;11.40;;;6.35;;
55270;SDS011;41132;47.162;9.470;2023-01-29T16:45:05;15.50;;;7.40;;
55270;SDS011;41132;47.162;9.470;2023-01-29T16:50:23;23.83;;;14.00;;
55270;SDS011;41132;47.162;9.470;2023-01-29T16:53:10;22.23;;;12.20;;
55270;SDS011;41132;47.162;9.470;2023-01-29T16:55:40;14.63;;;8.02;;
55270;SDS011;41132;47.162;9.470;2023-01-29T16:58:17;12.68;;;7.40;;
55270;SDS011;41132;47.162;9.470;2023-01-29T17:03:11;13.88;;;9.32;;
55270;SDS011;41132;47.162;9.470;2023-01-29T17:05:38;15.48;;;8.85;;
55270;SDS011;41132;47.162;9.470;2023-01-29T17:08:04;16.05;;;8.43;;
55270;SDS011;41132;47.162;9.470;2023-01-29T17:10:31;13.07;;;7.32;;
55270;SDS011;41132;47.162;9.470;2023-01-29T17:13:01;13.15;;;8.63;;
55270;SDS011;41132;47.162;9.470;2023-01-29T17:15:42;13.80;;;8.82;;
55270;SDS011;41132;47.162;9.470;2023-01-29T17:20:46;12.73;;;8.15;;
55270;SDS011;41132;47.162;9.470;2023-01-29T17:23:12;15.05;;;8.73;;
55270;SDS011;41132;47.162;9.470;2023-01-29T17:25:37;13.57;;;8.98;;
55270;SDS011;41132;47.162;9.470;2023-01-29T17:28:03;14.05;;;9.10;;
55270;SDS011;41132;47.162;9.470;2023-01-29T17:30:29;15.25;;;9.43;;
55270;SDS011;41132;47.162;9.470;2023-01-29T17:32:58;17.65;;;11.57;;
55270;SDS011;41132;47.162;9.470;2023-01-29T17:35:36;17.35;;;11.20;;
55270;SDS011;41132;47.162;9.470;2023-01-29T17:38:01;18.27;;;11.90;;
55270;SDS011;41132;47.162;9.470;2023-01-29T17:45:34;17.40;;;10.98;;
55270;SDS011;41132;47.162;9.470;2023-01-29T17:53:10;25.10;;;14.35;;
55270;SDS011;41132;47.162;9.470;2023-01-29T17:55:35;28.73;;;17.50;;
55270;SDS011;41132;47.162;9.470;2023-01-29T18:03:11;18.10;;;10.48;;
55270;SDS011;41132;47.162;9.470;2023-01-29T18:05:37;17.60;;;8.65;;
55270;SDS011;41132;47.162;9.470;2023-01-29T18:08:07;16.23;;;9.25;;
55270;SDS011;41132;47.162;9.470;2023-01-29T18:10:39;19.05;;;10.38;;
55270;SDS011;41132;47.162;9.470;2023-01-29T18:13:04;18.15;;;9.80;;
55270;SDS011;41132;47.162;9.470;2023-01-29T18:15:30;16.70;;;10.00;;
55270;SDS011;41132;47.162;9.470;2023-01-29T18:17:55;28.77;;;15.85;;
55270;SDS011;41132;47.162;9.470;2023-01-29T18:20:21;25.15;;;15.10;;
55270;SDS011;41132;47.162;9.470;2023-01-29T18:22:49;24.38;;;13.98;;
55270;SDS011;41132;47.162;9.470;2023-01-29T18:25:15;18.27;;;12.73;;
55270;SDS011;41132;47.162;9.470;2023-01-29T18:27:40;16.63;;;10.15;;
55270;SDS011;41132;47.162;9.470;2023-01-29T18:30:06;16.13;;;9.55;;
55270;SDS011;41132;47.162;9.470;2023-01-29T18:32:34;13.85;;;8.32;;
55270;SDS011;41132;47.162;9.470;2023-01-29T18:34:59;13.65;;;8.60;;
55270;SDS011;41132;47.162;9.470;2023-01-29T18:37:25;13.35;;;8.02;;
55270;SDS011;41132;47.162;9.470;2023-01-29T18:39:50;12.43;;;8.48;;
55270;SDS011;41132;47.162;9.470;2023-01-29T18:42:16;15.88;;;9.07;;
55270;SDS011;41132;47.162;9.470;2023-01-29T18:44:42;14.68;;;8.52;;
55270;SDS011;41132;47.162;9.470;2023-01-29T18:47:07;13.70;;;8.75;;
55270;SDS011;41132;47.162;9.470;2023-01-29T18:49:33;12.75;;;7.57;;
55270;SDS011;41132;47.162;9.470;2023-01-29T18:52:02;13.93;;;7.47;;
55270;SDS011;41132;47.162;9.470;2023-01-29T18:54:28;12.95;;;7.25;;
55270;SDS011;41132;47.162;9.470;2023-01-29T18:56:53;13.40;;;6.90;;
55270;SDS011;41132;47.162;9.470;2023-01-29T18:59:18;12.00;;;7.05;;
55270;SDS011;41132;47.162;9.470;2023-01-29T19:01:48;13.75;;;8.25;;
55270;SDS011;41132;47.162;9.470;2023-01-29T19:04:14;10.82;;;6.30;;
55270;SDS011;41132;47.162;9.470;2023-01-29T19:09:16;13.48;;;8.02;;
55270;SDS011;41132;47.162;9.470;2023-01-29T19:11:41;15.90;;;8.50;;
55270;SDS011;41132;47.162;9.470;2023-01-29T19:16:42;12.45;;;7.20;;
55270;SDS011;41132;47.162;9.470;2023-01-29T19:19:08;12.68;;;6.85;;
55270;SDS011;41132;47.162;9.470;2023-01-29T19:21:33;12.50;;;7.95;;
55270;SDS011;41132;47.162;9.470;2023-01-29T19:24:00;12.82;;;7.93;;
55270;SDS011;41132;47.162;9.470;2023-01-29T19:26:26;10.82;;;7.05;;
55270;SDS011;41132;47.162;9.470;2023-01-29T19:28:52;13.27;;;8.57;;
55270;SDS011;41132;47.162;9.470;2023-01-29T19:31:17;11.75;;;6.78;;
55270;SDS011;41132;47.162;9.470;2023-01-29T19:33:42;9.50;;;5.75;;
55270;SDS011;41132;47.162;9.470;2023-01-29T19:36:08;13.18;;;6.50;;
55270;SDS011;41132;47.162;9.470;2023-01-29T19:38:33;11.82;;;7.10;;
55270;SDS011;41132;47.162;9.470;2023-01-29T19:41:02;12.68;;;6.95;;
55270;SDS011;41132;47.162;9.470;2023-01-29T19:46:04;11.10;;;6.70;;
55270;SDS011;41132;47.162;9.470;2023-01-29T19:53:40;14.75;;;7.47;;
55270;SDS011;41132;47.162;9.470;2023-01-29T19:56:10;10.43;;;5.95;;
55270;SDS011;41132;47.162;9.470;2023-01-29T19:58:37;12.00;;;7.15;;
55270;SDS011;41132;47.162;9.470;2023-01-29T21:51:12;14.77;;;8.82;;
55270;SDS011;41132;47.162;9.470;2023-01-29T21:53:37;16.83;;;8.45;;
55270;SDS011;41132;47.162;9.470;2023-01-29T21:56:03;14.90;;;8.52;;
55270;SDS011;41132;47.162;9.470;2023-01-29T21:58:29;13.40;;;8.02;;
55270;SDS011;41132;47.162;9.470;2023-01-29T22:00:55;13.85;;;7.82;;
55270;SDS011;41132;47.162;9.470;2023-01-29T22:03:20;14.32;;;8.75;;
55270;SDS011;41132;47.162;9.470;2023-01-29T22:05:46;14.73;;;8.82;;
55270;SDS011;41132;47.162;9.470;2023-01-29T22:08:11;12.57;;;7.85;;
55270;SDS011;41132;47.162;9.470;2023-01-29T22:13:12;14.18;;;7.90;;
55270;SDS011;41132;47.162;9.470;2023-01-29T22:18:13;13.20;;;7.40;;
55270;SDS011;41132;47.162;9.470;2023-01-29T22:20:38;17.13;;;8.57;;
55270;SDS011;41132;47.162;9.470;2023-01-29T22:23:03;16.33;;;8.85;;
55270;SDS011;41132;47.162;9.470;2023-01-29T22:25:29;13.38;;;7.80;;
55270;SDS011;41132;47.162;9.470;2023-01-29T22:27:56;13.98;;;8.77;;
55270;SDS011;41132;47.162;9.470;2023-01-29T22:32:57;13.48;;;8.35;;
55270;SDS011;41132;47.162;9.470;2023-01-29T22:35:22;12.80;;;6.97;;
55270;SDS011;41132;47.162;9.470;2023-01-29T22:37:48;16.48;;;8.30;;
55270;SDS011;41132;47.162;9.470;2023-01-29T22:40:13;14.43;;;7.47;;
55270;SDS011;41132;47.162;9.470;2023-01-29T22:42:38;13.77;;;7.63;;
55270;SDS011;41132;47.162;9.470;2023-01-29T22:45:04;13.40;;;8.93;;
55270;SDS011;41132;47.162;9.470;2023-01-29T22:47:31;13.77;;;8.15;;
55270;SDS011;41132;47.162;9.470;2023-01-29T22:49:57;15.75;;;7.93;;
55270;SDS011;41132;47.162;9.470;2023-01-29T22:52:22;15.48;;;8.80;;
55270;SDS011;41132;47.162;9.470;2023-01-29T22:59:58;12.50;;;6.95;;
55270;SDS011;41132;47.162;9.470;2023-01-29T23:02:24;14.25;;;7.72;;
55270;SDS011;41132;47.162;9.470;2023-01-29T23:04:49;13.93;;;7.55;;
55270;SDS011;41132;47.162;9.470;2023-01-29T23:07:14;15.93;;;7.13;;
55270;SDS011;41132;47.162;9.470;2023-01-29T23:14:50;12.25;;;6.50;;
55270;SDS011;41132;47.162;9.470;2023-01-29T23:17:15;11.55;;;6.75;;
55270;SDS011;41132;47.162;9.470;2023-01-29T23:19:41;13.27;;;6.72;;
55270;SDS011;41132;47.162;9.470;2023-01-29T23:22:06;11.43;;;6.28;;
55270;SDS011;41132;47.162;9.470;2023-01-29T23:24:32;11.55;;;6.30;;
55270;SDS011;41132;47.162;9.470;2023-01-29T23:26:57;11.07;;;5.95;;
55270;SDS011;41132;47.162;9.470;2023-01-29T23:29:45;12.55;;;6.55;;
55270;SDS011;41132;47.162;9.470;2023-01-29T23:32:12;13.05;;;6.63;;
55270;SDS011;41132;47.162;9.470;2023-01-29T23:34:39;12.35;;;6.32;;
55270;SDS011;41132;47.162;9.470;2023-01-29T23:55:11;13.02;;;7.15;;
55270;SDS011;41132;47.162;9.470;2023-01-29T23:57:36;13.60;;;7.32;;
